Terminal Aerodrome Forecast
Issued by NWS

Home | Current Version | Previous Version | Text Only | Print | Product List | Glossary On
Versions: 1 2 3 4 5 6 7 8 9 10 11 12
926
FTUS46 KMTR 041720
TAFMRY
TAF
KMRY 041720Z 0418/0518 31005KT P6SM SCT200
     FM050300 24008KT P6SM BKN008 OVC150
     FM050600 24005KT P6SM OVC006
     FM051600 27008KT P6SM OVC020=

USA.gov is the U.S. government's official web portal to all federal, state and local government web resources and services.